CheckWX is a tool to help pilots better visualize weather data.  It is not intended as a substitute for an official pre-flight weather briefing.

16:24:34 UTC

KMKE TAF
General Mitchell International Airport
Milwaukee, Wisconsin, USA
KMKE 181539Z 1816/1918 28006KT P6SM SCT050 FM181800 28006KT P6SM BKN050 FM182300 29006KT P6SM SCT060

Mar-18@
16:00 UTC

Mar-18 @ 16:00 UTC

Mar-18@
18:00 UTC

Mar-18 @ 18:00 UTC

KMKE 181539Z 1816/1918 28006KT P6SM SCT050
Wind
  • 280° at 6 KTS
Cloud Levels
  • Scattered at 5,000' AGL

Mar-18@
18:00 UTC

Mar-18 @ 18:00 UTC

Mar-18@
23:00 UTC

Mar-18 @ 23:00 UTC

FM181800 28006KT P6SM BKN050

From

From Standard forecast or significant change

Wind
  • 280° at 6 KTS
Cloud Levels
  • Broken at 5,000' AGL

Mar-18@
23:00 UTC

Mar-18 @ 23:00 UTC

Mar-19@
18:00 UTC

Mar-19 @ 18:00 UTC

FM182300 29006KT P6SM SCT060

From

From Standard forecast or significant change

Wind
  • 290° at 6 KTS
Cloud Levels
  • Scattered at 6,000' AGL